Weather observations for the past three days for
Andrews County Airport
Metric (Imperial)
Date Time (cdt) Wind (kph) Vis. (km) Weather Sky Cond. Temperature (ºC) Relative Humidity Wind Chill (°C) Heat Index (°C) Pressure Precipitation (cm)
Air Dwpt 6 hour altimeter (cm) sea level (mb) 1 hr 3 hr 6 hr
Max. Min.
04 14:15 W 19 16.09 Partly Cloudy SCT100 37 11.2 21% 36 76.15 0.0
04 13:55 S 17 G 28 16.09 NULL NULL 37.3 11.5 21% 36 76.15 0.0
04 13:35 S 15 16.09 Overcast OVC003 37 11.8 22% 36 76.17 0.0
04 13:15 S 9 16.09 Overcast OVC003 37.2 11.9 22% 36 76.2 0.0
04 12:55 SW 13 16.09 Overcast OVC003 36 13.2 36 23.4 25% 35 76.23 0.0
04 12:35 W 13 16.09 Overcast OVC003 34.9 13.1 27% 34 76.25 0.0
04 12:15 Calm 16.09 Overcast OVC003 34.5 13.6 28% 34 76.28 0.0
04 11:55 W 11 16.09 Overcast OVC003 33.7 14 30% 33 76.28 0.0
04 11:35 W 11 16.09 Overcast OVC003 33.5 14.2 31% 33 76.28 0.0
04 11:15 W 11 16.09 Overcast OVC003 32.6 14.1 33% 32 76.28 0.0
04 10:55 W 15 16.09 Overcast OVC003 31.9 14.9 36% 31 76.28 0.0
04 10:35 W 15 16.09 Overcast OVC003 31.1 15.2 38% 31 76.28 0.0
04 10:15 SW 17 G 26 16.09 Overcast OVC003 30.1 15.7 42% 30 76.28 0.0
04 09:55 SW 15 16.09 Overcast OVC003 29.6 15.9 44% 30 76.25 0.0
04 09:35 SW 19 G 26 16.09 Overcast OVC003 28.9 16.2 46% 29 76.28 0.0
04 09:15 SW 24 G 30 16.09 Overcast OVC003 27.7 16.2 50% 28 76.28 0.0
04 08:55 SW 19 G 26 16.09 Overcast OVC003 26.7 16.1 52% 27 76.25 0.0
04 08:35 SW 13 16.09 Overcast OVC003 26 15.7 53% 27 76.25 0.0
04 08:15 S 13 16.09 Overcast OVC003 25.2 15.2 54% 26 76.2 0.0
04 07:55 S 11 16.09 Overcast OVC003 24.3 14.8 56% 26 76.17 0.0
04 07:35 S 7 16.09 Overcast OVC003 23.4 14.8 59% 76.17 0.0
04 07:15 S 9 16.09 Overcast OVC003 24.5 14.5 54% 26 76.15 0.0
04 06:55 SW 7 16.09 Overcast OVC003 25 14.5 27.2 23.6 52% 26 76.15 0.0
04 06:35 SW 7 16.09 Overcast OVC003 25 14.5 52% 26 76.15 0.0
04 06:15 SW 9 16.09 Overcast OVC003 25.7 14.2 49% 26 76.15 0.0
04 05:55 S 11 16.09 Overcast OVC003 26.1 14.1 48% 27 76.12 0.0
04 05:35 SW 13 16.09 Overcast OVC003 26.8 14.1 46% 27 76.12 0.0
04 05:15 SW 15 16.09 Overcast OVC003 27 14.1 45% 27 76.15 0.0
04 04:55 S 13 16.09 Overcast OVC003 27 14.1 45% 27 76.12 0.0
04 04:35 S 15 16.09 Overcast OVC003 26.3 14.1 47% 27 76.12 0.0
04 04:15 S 9 16.09 Overcast OVC003 25 14 51% 26 76.12 0.0
04 03:55 S 6 16.09 Overcast OVC003 24.2 14.2 54% 25 76.1 0.0
04 03:35 S 6 16.09 Overcast OVC003 24 14.4 55% 25 76.12 0.0
04 03:15 S 6 16.09 Overcast OVC003 24.1 14.5 55% 25 76.12 0.0
04 02:55 SE 7 16.09 Overcast OVC003 23.6 15 59% 76.12 0.0
04 02:35 SE 9 16.09 Overcast OVC003 24.1 15.6 59% 25 76.12 0.0
04 02:15 S 7 16.09 Overcast OVC003 24.4 16.5 61% 26 76.12 0.0
04 01:55 Calm 16.09 Overcast OVC003 25.6 15.5 54% 26 76.15 0.0
04 01:35 Calm 16.09 Overcast OVC003 26.2 15.5 52% 27 76.15 0.0
04 01:15 SW 9 16.09 Overcast OVC003 26.6 15.4 50% 27 76.12 0.0
04 00:55 SW 11 16.09 Overcast OVC003 26.9 15.1 33.6 26.6 48% 27 76.12 0.0
04 00:35 SW 17 16.09 Overcast OVC003 27.5 14.6 45% 28 76.12 0.0
04 00:15 SW 13 16.09 Overcast OVC003 28.1 14.1 42% 28 76.12 0.0
03 23:55 SW 7 16.09 Overcast OVC003 26.8 15.5 50% 27 76.1 0.0
03 23:35 SW 11 16.09 Overcast OVC003 28 14.6 44% 28 76.1 0.0
03 23:15 W 15 16.09 Overcast OVC003 28.2 14.6 43% 28 76.1 0.0
03 22:55 W 19 G 28 16.09 Overcast OVC003 29 14.2 40% 29 76.1 0.0
03 22:35 SW 7 16.09 Overcast OVC003 29.3 14.6 41% 29 76.1 0.0
03 22:15 W 9 16.09 Overcast OVC003 30 14.1 38% 29 76.1 0.0
03 21:55 W 9 16.09 Overcast OVC003 29.1 15 42% 29 76.07 0.0
03 21:35 W 11 16.09 Overcast OVC003 29.6 14.8 41% 29 76.05 0.0
03 21:15 SW 9 16.09 Overcast OVC003 31.1 14.8 37% 31 76.02 0.0
03 20:55 SW 9 16.09 Overcast OVC003 31.1 14.4 36% 31 76.02 0.0
03 20:35 SW 13 G 30 16.09 Overcast OVC003 31.3 13.5 34% 30 76 0.0
03 20:15 SW 22 G 28 16.09 Overcast OVC003 31 14.6 37% 30 76 0.0
03 19:55 W 24 G 39 16.09 Thunderstorm in Vicinity SCT003 BKN044 OVC090 31.5 15 37% 31 76 0.0
03 19:35 NE 7 G 20 11.27 Light Rain SCT002 BKN042 OVC110 30.2 13.7 36% 30 76.02 0.0
03 19:15 NW 19 16.09 Light Rain BKN002 BKN090 OVC110 33.4 10.1 24% 32 76 0.0
03 18:55 NW 22 G 37 16.09 Overcast BKN004 OVC080 31.7 12.3 38.8 30.2 30% 31 76 0.0
03 18:35 NW 31 G 44 16.09 Light Rain BKN004 BKN080 OVC110 30.3 14.1 37% 30 76 0.0
03 18:15 NW 15 16.09 Thunderstorm in Vicinity OVC004 32.3 13.9 33% 32 76 0.0
03 17:55 NW 22 G 35 16.09 Thunderstorm OVC004 33.4 13.7 30% 33 75.97 0.0
03 17:35 N 15 16.09 Overcast OVC004 35.3 12.6 25% 34 75.97 0.0
03 17:15 N 17 G 35 16.09 Overcast OVC004 34.6 13.6 28% 34 75.97 0.0
03 16:55 S 9 16.09 Mostly Cloudy BKN004 36.7 11.2 21% 35 75.97 0.0
03 16:35 S 15 16.09 Mostly Cloudy BKN004 37 11.2 21% 36 75.97 0.0
03 16:15 S 15 16.09 Overcast OVC004 38.4 11.5 20% 37 75.97 0.0
03 15:55 S 19 G 26 16.09 Mostly Cloudy SCT004 BKN110 38.7 11.9 20% 38 76 0.0
03 15:35 S 7 16.09 Fair CLR 36.7 12.1 23% 36 76.02 0.0
03 15:15 SW 15 16.09 Fair CLR 36.7 12.1 23% 36 76.02 0.0
03 14:55 S 9 16.09 Partly Cloudy SCT095 SCT120 38 12.1 21% 37 76.05 0.0
03 14:35 S 7 16.09 Partly Cloudy SCT095 37.7 12.3 22% 37 76.07 0.0
03 14:15 S 13 16.09 Mostly Cloudy BKN095 38.4 12.1 21% 37 76.1 0.0
03 13:55 SW 15 16.09 Fair CLR 37.4 12.9 23% 37 76.12 0.0
03 13:35 SW 7 16.09 Fair CLR 37.9 12.6 22% 37 76.15 0.0
03 13:15 W 7 16.09 Fair CLR 36.4 12.7 24% 35 76.17 0.0
03 12:55 S 13 16.09 Fair CLR 36.7 13.1 36.8 24.8 24% 36 76.23 0.0
03 12:35 SW 6 16.09 Fair CLR 36.1 13 25% 35 76.23 0.0
03 12:15 SW 17 16.09 Fair CLR 35.7 13.1 26% 35 76.25 0.0
03 11:55 S 11 16.09 Fair CLR 34.5 13.1 27% 33 76.25 0.0
03 11:35 SW 15 G 26 16.09 Fair CLR 34.9 13.9 28% 34 76.25 0.0
03 11:15 W 9 16.09 Fair CLR 34.3 14 29% 34 76.25 0.0
03 10:55 SW 13 16.09 Fair CLR 33.8 14.3 31% 33 76.28 0.0
03 10:35 SW 17 16.09 Fair CLR 33.3 14.7 33% 33 76.25 0.0
03 10:15 SW 20 G 28 16.09 Fair CLR 32.3 14.8 35% 32 76.25 0.0
03 09:55 S 19 16.09 Fair CLR 30.9 14.7 37% 30 76.25 0.0
03 09:35 S 20 G 26 16.09 Partly Cloudy SCT005 29.7 14.6 40% 29 76.25 0.0
03 09:15 S 19 16.09 Partly Cloudy SCT005 28.6 14.6 42% 28 76.28 0.0
03 08:55 S 20 16.09 Fair CLR 27.5 14.5 45% 28 76.25 0.0
03 08:35 S 15 16.09 Fair CLR 26.6 14.3 47% 27 76.25 0.0
03 08:15 S 11 16.09 Fair CLR 25.6 14 49% 26 76.25 0.0
03 07:55 S 9 16.09 Fair CLR 24.8 13.8 50% 26 76.25 0.0
03 07:35 S 11 16.09 Fair CLR 25 13.7 50% 26 76.2 0.0
03 07:15 S 11 16.09 Fair CLR 25.5 13.5 47% 26 76.2 0.0
03 06:55 S 13 16.09 Fair CLR 25.6 13.5 28.2 25.6 47% 26 76.2 0.0
03 06:35 SW 13 16.09 Fair CLR 26 13.5 46% 26 76.2 0.0
03 06:15 SW 13 16.09 Fair CLR 26 13.5 46% 26 76.2 0.0
03 05:55 SW 13 16.09 Fair CLR 26.2 13.2 45% 27 76.2 0.0
03 05:35 SW 15 16.09 Fair CLR 26.6 13.2 44% 27 76.2 0.0
03 05:15 SW 15 16.09 Fair CLR 26.8 13 43% 27 76.2 0.0
03 04:55 SW 17 16.09 Fair CLR 27 12.8 41% 27 76.2 0.0
03 04:35 S 17 16.09 Fair CLR 27.2 12.6 40% 27 76.2 0.0
03 04:15 SW 15 16.09 Fair CLR 27.3 12.5 40% 27 76.2 0.0
03 03:55 SW 15 16.09 Fair CLR 27.1 12.2 40% 27 76.2 0.0
03 03:35 S 13 16.09 Fair CLR 27.4 12.2 39% 27 76.23 0.0
03 03:15 S 17 16.09 Fair CLR 27.2 12 39% 27 76.2 0.0
03 02:55 S 13 16.09 Fair CLR 27 11.9 39% 27 76.23 0.0
03 02:35 S 11 16.09 Fair CLR 27.2 12 39% 27 76.23 0.0
03 02:15 S 13 16.09 Fair CLR 28 12 37% 27 76.23 0.0
03 01:55 S 15 16.09 Fair CLR 28.1 12 37% 28 76.23 0.0
03 01:35 S 13 16.09 Fair CLR 28 12 37% 27 76.23 0.0
03 01:15 S 13 16.09 Fair CLR 28 11.9 37% 27 76.23 0.0
03 00:55 S 11 16.09 Fair CLR 27.8 11.4 35.8 27.5 36% 27 76.23 0.0
03 00:35 S 11 16.09 Fair CLR 27.6 11.1 36% 27 76.23 0.0
03 00:15 S 11 16.09 Fair CLR 27.7 10.8 35% 27 76.23 0.0
02 23:55 S 11 16.09 Partly Cloudy SCT110 28 10.5 34% 27 76.23 0.0
02 23:35 S 9 16.09 Mostly Cloudy SCT005 BKN110 28.8 10.2 31% 28 76.23 0.0
02 23:15 SE 11 16.09 Mostly Cloudy SCT005 BKN110 29.5 10.1 30% 28 76.23 0.0
02 22:55 SE 11 16.09 Mostly Cloudy BKN110 29.6 10 30% 28 76.23 0.0
02 22:35 SE 11 16.09 Mostly Cloudy BKN100 29.5 9.9 30% 28 76.23 0.0
02 22:15 SE 11 16.09 Partly Cloudy SCT003 SCT110 29.6 9.8 29% 28 76.23 0.0
02 21:55 SE 11 16.09 Mostly Cloudy BKN003 BKN110 30.1 9.8 28% 29 76.2 0.0
02 21:35 SE 9 16.09 Overcast OVC003 30.7 9.8 27% 29 76.17 0.0
02 21:15 SE 11 16.09 Overcast OVC003 30.8 9.8 27% 29 76.15 0.0
02 20:55 SE 9 16.09 Overcast OVC003 31.4 10 27% 30 76.15 0.0
02 20:35 SE 11 16.09 Overcast OVC003 32.1 10 26% 30 76.15 0.0
02 20:15 SE 11 16.09 Overcast OVC003 32.8 10 25% 31 76.12 0.0
02 19:55 SE 13 16.09 Overcast OVC005 33.7 10 23% 32 76.1 0.0
02 19:35 SE 13 16.09 Overcast OVC005 34.5 10.2 23% 33 76.12 0.0
02 19:15 SE 15 16.09 Mostly Cloudy BKN005 BKN110 35 10.3 22% 33 76.12 0.0
02 18:55 SE 17 16.09 Partly Cloudy SCT005 35.8 10.6 37.5 35 22% 34 76.1 0.0
02 18:35 SE 13 16.09 Fair CLR 35.8 10.7 22% 34 76.12 0.0
02 18:15 S 9 16.09 Partly Cloudy SCT100 36.3 10.8 21% 35 76.1 0.0
02 17:55 S 15 16.09 Fair CLR 36.9 10.8 20% 35 76.12 0.0
02 17:35 S 11 G 26 16.09 Fair CLR 36.9 10.9 21% 35 76.12 0.0
02 17:15 S 11 G 26 16.09 Fair CLR 37.1 11 21% 36 76.15 0.0
02 16:55 Calm 16.09 Fair CLR 36.6 11.2 21% 35 76.15 0.0
02 16:35 SW 6 16.09 Fair CLR 36.2 11.4 22% 35 76.15 0.0
02 16:15 SE 9 G 26 16.09 Partly Cloudy SCT110 37.2 11.5 21% 36 76.17 0.0
02 15:55 W 7 16.09 Partly Cloudy SCT095 36.9 11.8 22% 36 76.2 0.0
02 15:35 SW 7 16.09 Fair CLR 36.9 12 22% 36 76.23 0.0
02 15:15 SE 9 16.09 Fair CLR 36.8 11.9 22% 36 76.25 0.0
02 14:55 S 9 16.09 Fair CLR 36.7 12 22% 35 76.28 0.0
02 14:35 SW 9 16.09 Fair CLR 36.2 11.9 23% 35 76.3 0.0
02 14:15 SW 9 16.09 Partly Cloudy SCT090 35.8 12.2 24% 35 76.3 0.0
02 13:55 S 15 16.09 Partly Cloudy SCT090 35.1 12.4 25% 34 76.35 0.0
02 13:35 SW 15 16.09 Partly Cloudy SCT090 35.4 12.3 25% 34 76.38 0.0
02 13:15 SE 9 16.09 Fair CLR 35.1 12.4 25% 34 76.38 0.0
02 12:55 S 17 16.09 Partly Cloudy SCT110 35.6 12.6 35.7 22.1 25% 34 76.43 0.0
02 12:35 S 20 G 28 16.09 Fair CLR 34.8 13.1 27% 34 76.43 0.0
02 12:15 SW 15 G 26 16.09 Partly Cloudy SCT008 34.4 13.4 28% 33 76.45 0.0
02 11:55 S 17 16.09 Fair CLR 33.5 13.9 31% 33 76.45 0.0
02 11:35 S 15 G 28 16.09 Fair CLR 33.2 14 31% 32 76.48 0.0
02 11:15 S 20 G 31 16.09 Fair CLR 32.8 14 32% 32 76.45 0.0
02 10:55 S 20 G 26 16.09 Fair CLR 31.7 14 34% 31 76.48 0.0
02 10:35 S 20 16.09 Fair CLR 31.1 14 35% 30 76.45 0.0
02 10:15 S 22 16.09 Partly Cloudy SCT009 30.2 14 37% 30 76.45 0.0
02 09:55 S 24 16.09 Partly Cloudy SCT010 29.3 13.9 39% 29 76.45 0.0
02 09:35 S 28 G 35 16.09 Fair CLR 28.6 14 41% 28 76.45 0.0
02 09:15 S 17 16.09 Fair CLR 27.3 14 44% 27 76.45 0.0
02 08:55 S 13 16.09 Fair CLR 26.6 14 46% 27 76.45 0.0
02 08:35 S 13 16.09 Fair CLR 25.3 14 50% 26 76.45 0.0
02 08:15 S 9 16.09 Fair CLR 24.1 14 53% 25 76.43 0.0
02 07:55 S 7 16.09 Fair CLR 22.7 13.7 57% 76.4 0.0
02 07:35 S 9 16.09 Fair CLR 22.2 13.7 59% 76.4 0.0
02 07:15 S 9 16.09 Fair CLR 22.3 13.8 59% 76.4 0.0
02 06:55 S 7 16.09 Fair CLR 22.4 13.9 27.5 22.4 59% 76.4 0.0
02 06:35 S 7 16.09 Fair CLR 22.6 14 58% 76.38 0.0
02 06:15 S 9 16.09 Fair CLR 23.5 14 55% 76.4 0.0
02 05:55 S 9 16.09 Fair CLR 23.6 14 55% 76.4 0.0
02 05:35 S 9 16.09 Fair CLR 24 14 54% 25 76.38 0.0
02 05:15 S 6 16.09 Fair CLR 23.9 13.8 53% 25 76.4 0.0
02 04:55 S 9 16.09 Fair CLR 24.9 13.6 50% 26 76.4 0.0
02 04:35 SW 9 16.09 Fair CLR 25.2 13.6 49% 26 76.4 0.0
02 04:15 S 6 16.09 Fair CLR 24.2 13.1 50% 25 76.4 0.0
02 03:55 S 7 16.09 Fair CLR 24.2 12.7 49% 25 76.4 0.0
02 03:35 S 7 16.09 Fair CLR 24.5 12.2 46% 26 76.4 0.0
02 03:15 S 6 16.09 Fair CLR 24.3 11.5 45% 25 76.4 0.0
02 02:55 S 6 16.09 Fair CLR 24.4 11.6 45% 26 76.4 0.0
02 02:35 S 6 16.09 Fair CLR 24.7 11.6 44% 26 76.4 0.0
02 02:15 S 7 16.09 Fair CLR 24.8 11.6 44% 26 76.4 0.0
02 01:55 S 7 16.09 Fair CLR 25.2 11.6 43% 26 76.4 0.0
02 01:35 SE 6 16.09 Fair CLR 26.1 11.7 41% 26 76.4 0.0
02 01:15 S 7 16.09 Mostly Cloudy BKN095 26.8 11.6 39% 27 76.4 0.0
02 00:55 S 9 16.09 Partly Cloudy SCT095 27.5 11.7 33.6 26.5 37% 27 76.4 0.0
02 00:35 SE 11 16.09 Fair CLR 27 11.6 38% 27 76.38 0.0
02 00:15 SE 9 16.09 Fair CLR 26.6 11.6 39% 27 76.35 0.0
01 23:55 SE 9 16.09 Partly Cloudy SCT100 27.9 11.6 36% 27 76.38 0.0
01 23:35 SE 15 16.09 Partly Cloudy SCT110 28.8 11.6 34% 28 76.38 0.0
01 23:15 SE 11 16.09 Mostly Cloudy BKN110 29 11.8 35% 28 76.38 0.0
01 22:55 SE 7 16.09 Mostly Cloudy BKN100 29.1 11.7 34% 28 76.38 0.0
01 22:35 SE 11 16.09 Partly Cloudy SCT100 29.3 11.7 34% 28 76.35 0.0
01 22:15 SE 13 16.09 Partly Cloudy SCT100 29.8 11.7 33% 29 76.35 0.0
01 21:55 SE 11 16.09 Fair CLR 30.1 11.8 32% 29 76.3 0.0
01 21:35 SE 15 16.09 Partly Cloudy SCT110 30.5 11.9 32% 29 76.28 0.0
01 21:15 SE 15 16.09 Partly Cloudy SCT100 31.1 11.8 31% 30 76.25 0.0
01 20:55 SE 13 16.09 Partly Cloudy SCT004 31.5 11.7 30% 30 76.25 0.0
01 20:35 SE 17 16.09 Partly Cloudy SCT004 SCT100 32 11.7 29% 31 76.23 0.0
01 20:15 SE 15 16.09 Mostly Cloudy SCT004 BKN100 32.6 11.7 28% 31 76.23 0.0
01 19:55 SE 17 11.27 Overcast SCT004 OVC100 33.2 11.6 27% 32 76.2 0.0
01 19:35 SE 19 16.09 Mostly Cloudy BKN100 33.5 11.7 26% 32 76.2 0.0
01 19:15 SE 19 16.09 Mostly Cloudy BKN110 33.5 11.8 27% 32 76.2 0.0
01 18:55 SE 15 16.09 Partly Cloudy SCT110 33.5 12 36.1 33.4 27% 32 76.17 0.0
01 18:35 SE 11 16.09 Fair CLR 34 11.9 26% 33 76.17 0.0
01 18:15 S 13 G 28 16.09 Partly Cloudy SCT095 SCT120 34.5 12.1 26% 33 76.17 0.0
01 17:55 SE 19 16.09 Mostly Cloudy BKN095 BKN120 35.3 12.3 25% 34 76.17 0.0
01 17:35 SE 9 G 15 16.09 Partly Cloudy SCT095 35.9 12.3 24% 35 76.17 0.0
01 17:15 SE 22 G 28 16.09 Fair CLR 35.8 12.3 24% 35 76.17 0.0
01 16:55 S 17 G 30 16.09 Fair CLR 34.7 12.5 26% 34 76.2 0.0
01 16:35 SE 13 G 28 16.09 Fair CLR 35.6 12.6 25% 34 76.23 0.0
01 16:15 SE 22 G 31 16.09 Fair CLR 35.9 12.6 24% 35 76.25 0.0
01 15:55 SE 19 G 31 16.09 Partly Cloudy SCT085 SCT120 34.9 13.2 27% 34 76.28 0.0
01 15:35 S 15 G 31 16.09 Fair CLR 34 12.2 27% 33 76.3 0.0
01 15:15 SE 15 G 30 16.09 Partly Cloudy SCT095 34.8 12.5 26% 34 76.3 0.0
01 14:55 SE 13 16.09 Mostly Cloudy BKN085 34.7 12.6 26% 34 76.35 0.0
01 14:35 S 15 16.09 Partly Cloudy SCT100 35.5 12.6 25% 34 76.35 0.0
Date Time (cdt) Wind (kph) Vis. (km) Weather Sky Cond. Air Dwpt Max. Min. Relative Humidity Wind Chill (°C) Heat Index (°C) altimeter (cm) sea level (mb) 1 hr 3 hr 6 hr
6 hour
Temperature (ºC) Pressure Precipitation (cm)